Time;durP1;ratioP1;P1;durP2;ratioP2;P2;SDS_P1;SDS_P2;PMS_P1;PMS_P2;Temp;Humidity;BMP_temperature;BMP_pressure;BME280_temperature;BME280_humidity;BME280_pressure;Samples;Min_cycle;Max_cycle;Signal;HPM_P1;HPM_P2
2022/04/14 00:00:29;;;;;;;;;;;;;;;-144.19;100.00;77037.88;5030069;28;19935;-83
2022/04/14 00:02:56;;;;;;;;;;;;;;;-144.19;100.00;77061.50;5029505;28;19929;-84
2022/04/14 00:05:22;;;;;;;;;;;;;;;-144.19;100.00;77069.38;5030023;28;20322;-82
2022/04/14 00:07:48;;;;;;;;;;;;;;;-144.19;100.00;77079.22;5030046;28;19931;-85
2022/04/14 00:10:15;;;;;;;;;;;;;;;-144.19;100.00;77079.22;5030810;28;19929;-81
2022/04/14 00:12:41;;;;;;;;;;;;;;;-144.19;100.00;77085.13;5029204;28;19925;-81
2022/04/14 00:15:08;;;;;;;;;;;;;;;-144.19;100.00;77065.44;5031703;28;19932;-84
2022/04/14 00:17:35;;;;;;;;;;;;;;;-144.19;100.00;77071.34;5029460;28;20015;-84
2022/04/14 00:20:02;;;;;;;;;;;;;;;-144.19;100.00;77079.22;5030834;28;19924;-84
2022/04/14 00:22:29;;;;;;;;;;;;;;;-144.19;100.00;77075.28;5030272;28;19936;-80
2022/04/14 00:24:55;;;;;;;;;;;;;;;-144.19;100.00;77063.47;5029302;28;19925;-82
2022/04/14 00:27:21;;;;;;;;;;;;;;;-144.19;100.00;77085.13;5031198;28;19967;-83
2022/04/14 00:29:48;;;;;;;;;;;;;;;-144.19;100.00;77077.25;5029892;28;19925;-82
2022/04/14 00:32:14;;;;;;;;;;;;;;;-144.19;100.00;77059.53;5030067;28;19933;-85
2022/04/14 00:34:40;;;;;;;;;;;;;;;-144.19;100.00;77073.31;5038312;28;19937;-83
2022/04/14 00:37:09;;;;;;;;;;;;;;;-144.19;100.00;77071.34;5051382;28;19924;-82
2022/04/14 00:39:35;;;;;;;;;;;;;;;-144.19;100.00;77053.63;5049983;28;20375;-82
2022/04/14 00:42:08;;;;;;;;;;;;;;;-144.19;100.00;77067.41;5051905;28;19933;-82
2022/04/14 00:44:35;;;;;;;;;;;;;;;-144.19;100.00;77035.91;5055519;28;20015;-84
2022/04/14 00:47:01;;;;;;;;;;;;;;;-144.19;100.00;77024.09;5053815;28;20016;-85
2022/04/14 00:49:28;;;;;;;;;;;;;;;-144.19;100.00;77043.78;5055163;28;19932;-82
2022/04/14 00:51:54;;;;;;;;;;;;;;;-144.19;100.00;77043.78;5054550;28;20386;-81
2022/04/14 00:54:20;;;;;;;;;;;;;;;-144.19;100.00;77059.53;5054846;28;19925;-83
2022/04/14 00:56:46;;;;;;;;;;;;;;;-144.19;100.00;77053.63;5054945;28;19925;-85
2022/04/14 00:59:13;;;;;;;;;;;;;;;-144.19;100.00;77061.50;5053548;28;19925;-85
2022/04/14 01:01:40;;;;;;;;;;;;;;;-144.19;100.00;77063.47;5054822;28;19924;-84
2022/04/14 01:04:08;;;;;;;;;;;;;;;-144.19;100.00;77053.63;5053879;28;20421;-84
2022/04/14 01:06:37;;;;;;;;;;;;;;;-144.19;100.00;77039.84;5073896;23;20314;-92
2022/04/14 01:09:19;;;;;;;;;;;;;;;-144.19;100.00;77059.53;5052656;28;19924;-92
2022/04/14 01:11:49;;;;;;;;;;;;;;;-144.19;100.00;77071.34;5053434;28;20011;-93
2022/04/14 01:14:34;;;;;;;;;;;;;;;-144.19;100.00;77085.13;5047289;28;19929;-90
2022/04/14 01:17:02;;;;;;;;;;;;;;;-144.19;100.00;77079.22;5054404;28;20391;-91
2022/04/14 01:19:29;;;;;;;;;;;;;;;-144.19;100.00;77059.53;5053245;28;20355;-92
2022/04/14 01:21:58;;;;;;;;;;;;;;;-144.19;100.00;77059.53;5052080;28;20417;-93
2022/04/14 01:24:25;;;;;;;;;;;;;;;-144.19;100.00;77067.41;5053167;28;19947;-92
2022/04/14 01:26:52;;;;;;;;;;;;;;;-144.19;100.00;77055.59;5052770;28;19931;-90
2022/04/14 01:29:20;;;;;;;;;;;;;;;-144.19;100.00;77047.72;5053753;28;19943;-91
2022/04/14 01:31:46;;;;;;;;;;;;;;;-144.19;100.00;77051.66;5052569;28;19925;-90
2022/04/14 01:34:13;;;;;;;;;;;;;;;-144.19;100.00;77039.84;5048668;28;19936;-91
2022/04/14 01:36:39;;;;;;;;;;;;;;;-144.19;100.00;77028.03;5032910;28;20024;-91
2022/04/14 01:39:08;;;;;;;;;;;;;;;-144.19;100.00;77035.91;5032464;28;19925;-91
2022/04/14 01:41:34;;;;;;;;;;;;;;;-144.19;100.00;77047.72;5038284;28;20008;-92
2022/04/14 01:44:00;;;;;;;;;;;;;;;-144.19;100.00;77031.97;5038815;28;19925;-91
2022/04/14 01:46:27;;;;;;;;;;;;;;;-144.19;100.00;77028.03;5030459;28;19925;-90
2022/04/14 01:48:53;;;;;;;;;;;;;;;-144.19;100.00;77028.03;5033607;28;19932;-90
2022/04/14 01:51:19;;;;;;;;;;;;;;;-144.19;100.00;77020.16;5031644;28;19952;-90
2022/04/14 01:53:49;;;;;;;;;;;;;;;-144.19;100.00;77008.34;5031275;28;19955;-91
2022/04/14 01:56:18;;;;;;;;;;;;;;;-144.19;100.00;77002.44;5032244;28;19929;-90
2022/04/14 01:58:44;;;;;;;;;;;;;;;-144.19;100.00;77002.44;5043553;28;19925;-90
2022/04/14 02:01:11;;;;;;;;;;;;;;;-144.19;100.00;77000.47;5051606;28;20577;-90
2022/04/14 02:03:37;;;;;;;;;;;;;;;-144.19;100.00;77008.34;5051295;28;19924;-90
2022/04/14 02:06:03;;;;;;;;;;;;;;;-144.19;100.00;77004.41;5051467;28;20315;-90
2022/04/14 02:08:30;;;;;;;;;;;;;;;-144.19;100.00;77004.41;5051840;28;19935;-90
2022/04/14 02:10:56;;;;;;;;;;;;;;;-144.19;100.00;77012.28;5051386;28;19925;-90
2022/04/14 02:13:22;;;;;;;;;;;;;;;-144.19;100.00;77020.16;5050748;28;20400;-90
2022/04/14 02:15:49;;;;;;;;;;;;;;;-144.19;100.00;77014.25;5051600;28;19947;-90
2022/04/14 02:18:15;;;;;;;;;;;;;;;-144.19;100.00;76998.50;5051412;28;19971;-90
2022/04/14 02:20:41;;;;;;;;;;;;;;;-144.19;100.00;77002.44;5052144;28;19925;-90
2022/04/14 02:23:08;;;;;;;;;;;;;;;-144.19;100.00;77010.31;5050563;28;20506;-89
2022/04/14 02:25:34;;;;;;;;;;;;;;;-144.19;100.00;77039.84;5051126;28;20303;-90
2022/04/14 02:28:03;;;;;;;;;;;;;;;-144.19;100.00;77035.91;5051389;28;19928;-93
2022/04/14 02:30:29;;;;;;;;;;;;;;;-144.19;100.00;77043.78;5051084;28;20016;-90
2022/04/14 02:32:56;;;;;;;;;;;;;;;-144.19;100.00;77033.94;5050563;28;19925;-91
2022/04/14 02:35:22;;;;;;;;;;;;;;;-144.19;100.00;77028.03;5038165;28;19968;-91
2022/04/14 02:37:49;;;;;;;;;;;;;;;-144.19;100.00;77031.97;5032242;28;19925;-90
2022/04/14 02:40:15;;;;;;;;;;;;;;;-144.19;100.00;77026.06;5030686;28;19932;-90
2022/04/14 02:42:42;;;;;;;;;;;;;;;-144.19;100.00;77024.09;5030205;28;19931;-90
2022/04/14 02:45:09;;;;;;;;;;;;;;;-144.19;100.00;77055.59;5029675;28;19980;-90
2022/04/14 02:47:35;;;;;;;;;;;;;;;-144.19;100.00;77039.84;5031039;28;19931;-90
2022/04/14 02:50:03;;;;;;;;;;;;;;;-144.19;100.00;77020.16;5030898;28;19957;-89
2022/04/14 02:52:29;;;;;;;;;;;;;;;-144.19;100.00;77016.22;5031302;28;19929;-90
2022/04/14 02:54:56;;;;;;;;;;;;;;;-144.19;100.00;77022.13;5030679;28;19925;-90
2022/04/14 02:57:23;;;;;;;;;;;;;;;-144.19;100.00;77037.88;5030538;28;19932;-90
2022/04/14 02:59:49;;;;;;;;;;;;;;;-144.19;100.00;77041.81;5031021;28;19925;-90
2022/04/14 03:02:16;;;;;;;;;;;;;;;-144.19;100.00;77031.97;5029791;28;20261;-90
2022/04/14 03:04:42;;;;;;;;;;;;;;;-144.19;100.00;77030.00;5029738;28;20299;-90
2022/04/14 03:07:08;;;;;;;;;;;;;;;-144.19;100.00;77035.91;5031332;28;19925;-90
2022/04/14 03:09:35;;;;;;;;;;;;;;;-144.19;100.00;77035.91;5030186;28;20044;-90
2022/04/14 03:12:01;;;;;;;;;;;;;;;-144.19;100.00;77024.09;5029609;28;19929;-90
2022/04/14 03:14:27;;;;;;;;;;;;;;;-144.19;100.00;77031.97;5030269;28;19931;-90
2022/04/14 03:16:54;;;;;;;;;;;;;;;-144.19;100.00;77045.75;5030402;28;20410;-90
2022/04/14 03:19:20;;;;;;;;;;;;;;;-144.19;100.00;77051.66;5030226;28;19950;-90
2022/04/14 03:21:47;;;;;;;;;;;;;;;-144.19;100.00;77028.03;5029667;28;20016;-90
2022/04/14 03:24:13;;;;;;;;;;;;;;;-144.19;100.00;77026.06;5029655;28;19948;-91
2022/04/14 03:26:39;;;;;;;;;;;;;;;-144.19;100.00;77031.97;5031066;28;19964;-90
2022/04/14 03:29:05;;;;;;;;;;;;;;;-144.19;100.00;77063.47;5030254;28;20350;-90
2022/04/14 03:31:32;;;;;;;;;;;;;;;-144.19;100.00;77071.34;5029862;28;19925;-87
2022/04/14 03:33:59;;;;;;;;;;;;;;;-144.19;100.00;77063.47;5031954;28;19925;-88
2022/04/14 03:36:25;;;;;;;;;;;;;;;-144.19;100.00;77071.34;5049691;28;19933;-88
2022/04/14 03:38:52;;;;;;;;;;;;;;;-144.19;100.00;77071.34;5049860;28;19924;-88
2022/04/14 03:41:18;;;;;;;;;;;;;;;-144.19;100.00;77071.34;5050000;28;20015;-89
2022/04/14 03:43:44;;;;;;;;;;;;;;;-144.19;100.00;77075.28;5049760;28;19931;-88
2022/04/14 03:46:14;;;;;;;;;;;;;;;-144.19;100.00;77069.38;5051683;28;20399;-89
2022/04/14 03:48:44;;;;;;;;;;;;;;;-144.19;100.00;77071.34;5050735;28;19981;-88
2022/04/14 03:51:12;;;;;;;;;;;;;;;-144.19;100.00;77067.41;5050170;28;19933;-92
2022/04/14 03:53:38;;;;;;;;;;;;;;;-144.19;100.00;77069.38;5049834;28;20024;-92
2022/04/14 03:56:05;;;;;;;;;;;;;;;-144.19;100.00;77047.72;5050171;28;19932;-90
2022/04/14 03:58:31;;;;;;;;;;;;;;;-144.19;100.00;77055.59;5040934;28;20395;-91
2022/04/14 04:00:57;;;;;;;;;;;;;;;-144.19;100.00;77051.66;5029789;28;19932;-90
2022/04/14 04:03:24;;;;;;;;;;;;;;;-144.19;100.00;77059.53;5030649;28;20370;-89
2022/04/14 04:05:50;;;;;;;;;;;;;;;-144.19;100.00;77075.28;5030280;28;19933;-90
2022/04/14 04:08:18;;;;;;;;;;;;;;;-144.19;100.00;77079.22;5030176;28;19929;-91
2022/04/14 04:10:45;;;;;;;;;;;;;;;-144.19;100.00;77079.22;5029525;28;19959;-90
2022/04/14 04:13:11;;;;;;;;;;;;;;;-144.19;100.00;77075.28;5041781;28;19929;-90
2022/04/14 04:15:38;;;;;;;;;;;;;;;-144.19;100.00;77091.03;5037285;28;19926;-90
2022/04/14 04:18:05;;;;;;;;;;;;;;;-144.19;100.00;77094.97;5042708;28;19964;-90
2022/04/14 04:20:31;;;;;;;;;;;;;;;-144.19;100.00;77102.84;5029433;28;20036;-91
2022/04/14 04:23:04;;;;;;;;;;;;;;;-144.19;100.00;77122.53;5030861;28;19925;-91
2022/04/14 04:25:31;;;;;;;;;;;;;;;-144.19;100.00;77106.78;5029992;28;19984;-91
2022/04/14 04:27:57;;;;;;;;;;;;;;;-144.19;100.00;77126.47;5030410;28;20486;-91
2022/04/14 04:30:24;;;;;;;;;;;;;;;-144.19;100.00;77120.56;5026686;28;20004;-89
2022/04/14 04:32:50;;;;;;;;;;;;;;;-144.19;100.00;77120.56;5030751;28;20039;-90
2022/04/14 04:35:17;;;;;;;;;;;;;;;-144.19;100.00;77124.50;5029913;28;19926;-90
2022/04/14 04:37:43;;;;;;;;;;;;;;;-144.19;100.00;77128.44;5029253;28;20395;-90
2022/04/14 04:40:10;;;;;;;;;;;;;;;-144.19;100.00;77126.47;5030005;28;19925;-88
2022/04/14 04:42:36;;;;;;;;;;;;;;;-144.19;100.00;77122.53;5029484;28;19931;-90
2022/04/14 04:45:03;;;;;;;;;;;;;;;-144.19;100.00;77126.47;5029102;28;19925;-90
2022/04/14 04:47:29;;;;;;;;;;;;;;;-144.19;100.00;77140.25;5028816;28;19952;-89
2022/04/14 04:49:57;;;;;;;;;;;;;;;-144.19;100.00;77140.25;5030320;28;19936;-89
2022/04/14 04:52:23;;;;;;;;;;;;;;;-144.19;100.00;77152.06;5029567;28;19925;-89
2022/04/14 04:54:50;;;;;;;;;;;;;;;-144.19;100.00;77152.06;5028968;28;20022;-90
2022/04/14 04:57:16;;;;;;;;;;;;;;;-144.19;100.00;77154.03;5029040;28;19925;-91
2022/04/14 04:59:42;;;;;;;;;;;;;;;-144.19;100.00;77152.06;5028863;28;19991;-89
2022/04/14 05:02:09;;;;;;;;;;;;;;;-144.19;100.00;77150.09;5027591;28;19975;-89
2022/04/14 05:04:35;;;;;;;;;;;;;;;-144.19;100.00;77140.25;5028487;28;19932;-90
2022/04/14 05:07:02;;;;;;;;;;;;;;;-144.19;100.00;77142.22;5029002;28;20391;-89
2022/04/14 05:09:28;;;;;;;;;;;;;;;-144.19;100.00;77144.19;5028574;28;19972;-90
2022/04/14 05:11:54;;;;;;;;;;;;;;;-144.19;100.00;77156.00;5028740;28;19954;-90
2022/04/14 05:14:21;;;;;;;;;;;;;;;-144.19;100.00;77150.09;5030066;28;19929;-89
2022/04/14 05:16:47;;;;;;;;;;;;;;;-144.19;100.00;77146.16;5028678;28;19925;-89
2022/04/14 05:19:13;;;;;;;;;;;;;;;-144.19;100.00;77140.25;5029984;28;19925;-89
2022/04/14 05:21:39;;;;;;;;;;;;;;;-144.19;100.00;77126.47;5029872;28;19931;-88
2022/04/14 05:24:06;;;;;;;;;;;;;;;-144.19;100.00;77138.28;5027475;28;19925;-89
2022/04/14 05:26:33;;;;;;;;;;;;;;;-144.19;100.00;77122.53;5028869;28;19926;-89
2022/04/14 05:28:59;;;;;;;;;;;;;;;-144.19;100.00;77114.66;5031621;28;19932;-89
2022/04/14 05:31:26;;;;;;;;;;;;;;;-144.19;100.00;77114.66;5031713;28;20307;-89
2022/04/14 05:33:53;;;;;;;;;;;;;;;-144.19;100.00;77118.59;5032330;28;19925;-90
2022/04/14 05:36:21;;;;;;;;;;;;;;;-144.19;100.00;77120.56;5052120;28;19932;-89
2022/04/14 05:38:47;;;;;;;;;;;;;;;-144.19;100.00;77128.44;5053478;28;19932;-89
2022/04/14 05:41:13;;;;;;;;;;;;;;;-144.19;100.00;77142.22;5051496;28;19931;-89
2022/04/14 05:43:39;;;;;;;;;;;;;;;-144.19;100.00;77146.16;5051398;28;19925;-88
2022/04/14 05:46:06;;;;;;;;;;;;;;;-144.19;100.00;77154.03;5050410;28;19935;-88
2022/04/14 05:48:32;;;;;;;;;;;;;;;-144.19;100.00;77157.97;5052011;28;19925;-88
2022/04/14 05:50:58;;;;;;;;;;;;;;;-144.19;100.00;77142.22;5051541;28;19925;-90
2022/04/14 05:53:26;;;;;;;;;;;;;;;-144.19;100.00;77146.16;5047182;28;19925;-88
2022/04/14 05:55:53;;;;;;;;;;;;;;;-144.19;100.00;77157.97;5029666;28;20015;-89
2022/04/14 05:58:19;;;;;;;;;;;;;;;-144.19;100.00;77138.28;5031489;28;19932;-89
2022/04/14 06:00:46;;;;;;;;;;;;;;;-144.19;100.00;77146.16;5031376;28;19933;-89
2022/04/14 06:03:12;;;;;;;;;;;;;;;-144.19;100.00;77140.25;5028543;28;20279;-88
2022/04/14 06:05:39;;;;;;;;;;;;;;;-144.19;100.00;77138.28;5027598;28;19925;-89
2022/04/14 06:08:05;;;;;;;;;;;;;;;-144.19;100.00;77140.25;5032544;28;19932;-89
2022/04/14 06:10:32;;;;;;;;;;;;;;;-144.19;100.00;77138.28;5031118;28;19936;-89
2022/04/14 06:12:58;;;;;;;;;;;;;;;-144.19;100.00;77112.69;5030320;28;19929;-89
2022/04/14 06:15:30;;;;;;;;;;;;;;;-144.19;100.00;77128.44;5032212;28;20430;-89
2022/04/14 06:17:56;;;;;;;;;;;;;;;-144.19;100.00;77126.47;5031315;28;19925;-89
2022/04/14 06:20:23;;;;;;;;;;;;;;;-144.19;100.00;77120.56;5030960;28;19925;-89
2022/04/14 06:22:49;;;;;;;;;;;;;;;-144.19;100.00;77106.78;5030622;28;19931;-90
2022/04/14 06:25:22;;;;;;;;;;;;;;;-144.19;100.00;77114.66;5031964;28;19995;-89
2022/04/14 06:27:49;;;;;;;;;;;;;;;-144.19;100.00;77118.59;5030993;28;19925;-88
2022/04/14 06:30:16;;;;;;;;;;;;;;;-144.19;100.00;77110.72;5030972;28;19925;-90
2022/04/14 06:32:54;;;;;;;;;;;;;;;-144.19;100.00;77106.78;5028595;28;19925;-90
2022/04/14 06:35:20;;;;;;;;;;;;;;;-144.19;100.00;77091.03;5030813;28;20020;-91
2022/04/14 06:37:46;;;;;;;;;;;;;;;-144.19;100.00;77094.97;5030733;28;19932;-90
2022/04/14 06:40:13;;;;;;;;;;;;;;;-144.19;100.00;77091.03;5030283;28;19929;-91
2022/04/14 06:42:59;;;;;;;;;;;;;;;-144.19;100.00;77093.00;5030212;28;20473;-88
2022/04/14 06:45:26;;;;;;;;;;;;;;;-144.19;100.00;77081.19;5032018;28;19971;-89
2022/04/14 06:47:52;;;;;;;;;;;;;;;-144.19;100.00;77063.47;5031147;28;19925;-89
2022/04/14 06:50:19;;;;;;;;;;;;;;;-144.19;100.00;77051.66;5029787;28;19932;-89
2022/04/14 06:52:45;;;;;;;;;;;;;;;-144.19;100.00;77067.41;5041838;28;19931;-89
2022/04/14 06:55:11;;;;;;;;;;;;;;;-144.19;100.00;77061.50;5042232;28;19949;-92
2022/04/14 06:57:38;;;;;;;;;;;;;;;-144.19;100.00;77063.47;5039249;28;19925;-90
2022/04/14 07:00:04;;;;;;;;;;;;;;;-144.19;100.00;77024.09;5031692;28;19932;-89
2022/04/14 07:02:31;;;;;;;;;;;;;;;-144.19;100.00;77022.13;5030193;28;19932;-88
2022/04/14 07:04:59;;;;;;;;;;;;;;;-144.19;100.00;77012.28;5030371;28;19925;-88
2022/04/14 07:07:32;;;;;;;;;;;;;;;-144.19;100.00;77018.19;5058173;22;20433;-78
2022/04/14 07:09:58;;;;;;;;;;;;;;;-144.19;100.00;77008.34;5033295;28;19925;-83
2022/04/14 07:12:25;;;;;;;;;;;;;;;-144.19;100.00;76976.84;5032897;28;20300;-80
2022/04/14 07:14:51;;;;;;;;;;;;;;;-144.19;100.00;76941.44;5033485;28;19925;-82
2022/04/14 07:17:20;;;;;;;;;;;;;;;-144.19;100.00;76929.63;5033232;28;19925;-82
2022/04/14 07:19:47;;;;;;;;;;;;;;;-144.19;100.00;76913.88;5028893;28;19931;-81
2022/04/14 07:22:19;;;;;;;;;;;;;;;-144.19;100.00;76876.47;5033248;28;20299;-80
2022/04/14 07:24:49;;;;;;;;;;;;;;;-144.19;100.00;76884.34;5034477;28;20303;-81
2022/04/14 07:27:20;;;;;;;;;;;;;;;-144.19;100.00;76868.59;5034052;28;19929;-81
2022/04/14 07:29:46;;;;;;;;;;;;;;;-144.19;100.00;76890.25;5040636;28;19925;-79
2022/04/14 07:32:13;;;;;;;;;;;;;;;-144.19;100.00;76862.69;5049079;28;19925;-79
2022/04/14 07:34:39;;;;;;;;;;;;;;;-144.19;100.00;76846.94;5039804;28;19932;-82
2022/04/14 07:37:06;;;;;;;;;;;;;;;-144.19;100.00;76858.75;5034376;28;19978;-81
2022/04/14 07:39:32;;;;;;;;;;;;;;;-144.19;100.00;76858.75;5033089;28;20023;-82
2022/04/14 07:41:58;;;;;;;;;;;;;;;-144.19;100.00;76860.72;5032000;28;19932;-83
2022/04/14 07:44:25;;;;;;;;;;;;;;;-144.19;100.00;76852.84;5032055;28;19972;-80
2022/04/14 07:46:51;;;;;;;;;;;;;;;-144.19;100.00;76874.50;5032351;28;19925;-81
2022/04/14 07:49:17;;;;;;;;;;;;;;;-144.19;100.00;76872.53;5032530;28;20311;-80
2022/04/14 07:51:44;;;;;;;;;;;;;;;-144.19;100.00;76872.53;5032043;28;19925;-81
2022/04/14 07:54:10;;;;;;;;;;;;;;;-144.19;100.00;76872.53;5034086;28;20413;-83
2022/04/14 07:56:37;;;;;;;;;;;;;;;-144.19;100.00;76868.59;5037679;28;19931;-83
2022/04/14 07:59:03;;;;;;;;;;;;;;;-144.19;100.00;76874.50;5035580;28;19925;-82
2022/04/14 08:01:29;;;;;;;;;;;;;;;-144.19;100.00;76886.31;5031364;28;20580;-82
2022/04/14 08:03:56;;;;;;;;;;;;;;;-144.19;100.00;76909.94;5031358;28;19925;-81
2022/04/14 08:06:25;;;;;;;;;;;;;;;-144.19;100.00;76913.88;5032417;28;19931;-81
2022/04/14 08:08:51;;;;;;;;;;;;;;;-144.19;100.00;76921.75;5035160;28;19925;-82
2022/04/14 08:11:18;;;;;;;;;;;;;;;-144.19;100.00;76935.53;5035565;28;19925;-80
2022/04/14 08:13:44;;;;;;;;;;;;;;;-144.19;100.00;76913.88;5031484;28;19933;-81
2022/04/14 08:16:11;;;;;;;;;;;;;;;-144.19;100.00;76921.75;5027061;28;19926;-82
2022/04/14 08:18:38;;;;;;;;;;;;;;;-144.19;100.00;76906.00;5032220;28;19971;-83
2022/04/14 08:21:04;;;;;;;;;;;;;;;-144.19;100.00;76898.13;5026700;28;19933;-80
2022/04/14 08:23:32;;;;;;;;;;;;;;;-144.19;100.00;76868.59;5050090;28;19929;-83
2022/04/14 08:25:58;;;;;;;;;;;;;;;-144.19;100.00;76874.50;5050725;28;19932;-83
2022/04/14 08:28:43;;;;;;;;;;;;;;;-144.19;100.00;76841.03;5047048;28;19929;-80
2022/04/14 08:31:10;;;;;;;;;;;;;;;-144.19;100.00;76846.94;5050371;28;19925;-81
2022/04/14 08:33:37;;;;;;;;;;;;;;;-144.19;100.00;76858.75;5048911;28;20070;-82
2022/04/14 08:36:05;;;;;;;;;;;;;;;-144.19;100.00;76811.50;5032934;28;19925;-81
2022/04/14 08:38:31;;;;;;;;;;;;;;;-144.19;100.00;76854.81;5034220;28;19924;-81
2022/04/14 08:41:00;;;;;;;;;;;;;;;-144.19;100.00;76839.06;5051081;28;19931;-83
2022/04/14 08:43:45;;;;;;;;;;;;;;;-144.19;100.00;76789.84;5054313;28;19932;-81
2022/04/14 08:46:12;;;;;;;;;;;;;;;-144.19;100.00;76736.69;5055550;28;19931;-83
2022/04/14 08:48:39;;;;;;;;;;;;;;;-144.19;100.00;76720.94;5053572;28;19924;-85
2022/04/14 08:51:06;;;;;;;;;;;;;;;-144.19;100.00;76748.50;5052814;28;20020;-83
2022/04/14 08:53:35;;;;;;;;;;;;;;;-144.19;100.00;76717.00;5037049;28;20379;-82
2022/04/14 08:56:04;;;;;;;;;;;;;;;-144.19;100.00;76746.53;5041936;28;19925;-82
2022/04/14 08:58:31;;;;;;;;;;;;;;;-144.19;100.00;76738.66;5036756;28;19925;-83
2022/04/14 09:00:57;;;;;;;;;;;;;;;-144.19;100.00;76758.34;5030571;28;19925;-83
2022/04/14 09:03:44;;;;;;;;;;;;;;;-144.19;100.00;76770.16;5037833;28;20416;-80
2022/04/14 09:06:10;;;;;;;;;;;;;;;-144.19;100.00;76717.00;5056283;28;19936;-83
2022/04/14 09:08:37;;;;;;;;;;;;;;;-144.19;100.00;76689.44;5049842;28;20016;-82
2022/04/14 09:11:03;;;;;;;;;;;;;;;-144.19;100.00;76683.53;5047295;28;20367;-83
2022/04/14 09:13:29;;;;;;;;;;;;;;;-144.19;100.00;76707.16;5058422;28;20019;-83
2022/04/14 09:15:56;;;;;;;;;;;;;;;-144.19;100.00;76677.66;5073335;28;19931;-83
2022/04/14 09:18:22;;;;;;;;;;;;;;;-144.19;100.00;76652.06;5073550;28;19929;-80
2022/04/14 09:21:01;;;;;;;;;;;;;;;-144.19;100.00;76602.84;5058553;28;19925;-82
2022/04/14 09:23:27;;;;;;;;;;;;;;;-144.19;100.00;76587.09;5058282;28;20284;-82
2022/04/14 09:26:06;;;;;;;;;;;;;;;-144.19;100.00;76591.03;5057505;28;20023;-84
2022/04/14 09:28:32;;;;;;;;;;;;;;;-144.19;100.00;76555.59;5058263;28;19937;-84
2022/04/14 09:31:03;;;;;;;;;;;;;;;-144.19;100.00;76543.78;5053087;28;19925;-84
2022/04/14 09:33:31;;;;;;;;;;;;;;;-144.19;100.00;76589.06;5046856;28;20316;-86
2022/04/14 09:36:18;;;;;;;;;;;;;;;-144.19;100.00;76528.03;5046130;28;20012;-83
2022/04/14 09:38:49;;;;;;;;;;;;;;;-144.19;100.00;76520.16;5050475;28;19925;-85
2022/04/14 09:41:37;;;;;;;;;;;;;;;-144.19;100.00;76472.94;5055345;28;19982;-81
2022/04/14 09:44:05;;;;;;;;;;;;;;;-144.19;100.00;76470.97;5046820;28;19925;-83
2022/04/14 09:46:31;;;;;;;;;;;;;;;-144.19;100.00;76463.09;5047709;28;20037;-83
2022/04/14 09:49:09;;;;;;;;;;;;;;;-144.19;100.00;76500.47;5043493;28;19971;-84
2022/04/14 09:51:40;;;;;;;;;;;;;;;-144.19;100.00;76494.59;5043085;28;20315;-85
2022/04/14 09:54:11;;;;;;;;;;;;;;;-144.19;100.00;76453.25;5046269;28;19939;-85
2022/04/14 09:56:41;;;;;;;;;;;;;;;-144.19;100.00;76390.25;5043467;28;19925;-85
2022/04/14 09:59:08;;;;;;;;;;;;;;;-144.19;100.00;76413.88;5045109;28;19924;-83
2022/04/14 10:01:34;;;;;;;;;;;;;;;-144.19;100.00;76474.91;5042271;28;20302;-89
2022/04/14 10:04:01;;;;;;;;;;;;;;;-144.19;100.00;76518.19;5045786;28;19933;-85
2022/04/14 10:06:29;;;;;;;;;;;;;;;-144.19;100.00;76520.16;5046943;28;20381;-84
2022/04/14 10:08:55;;;;;;;;;;;;;;;-144.19;100.00;76472.94;5047169;28;19929;-85
2022/04/14 10:11:36;;;;;;;;;;;;;;;-144.19;100.00;76417.81;5045066;28;20418;-84
2022/04/14 10:14:10;;;;;;;;;;;;;;;-144.19;100.00;76425.69;5045019;28;19925;-81
2022/04/14 10:16:38;;;;;;;;;;;;;;;-144.19;100.00;76398.13;5046772;28;19995;-80
2022/04/14 10:19:05;;;;;;;;;;;;;;;-144.19;100.00;76427.66;5045235;28;19972;-83
2022/04/14 10:21:34;;;;;;;;;;;;;;;-144.19;100.00;76413.88;5043749;28;19929;-87
2022/04/14 10:24:01;;;;;;;;;;;;;;;-144.19;100.00;76303.66;5041922;28;19932;-82
2022/04/14 10:26:28;;;;;;;;;;;;;;;-144.19;100.00;76272.16;5048125;28;20658;-83
2022/04/14 10:28:55;;;;;;;;;;;;;;;-144.19;100.00;76213.13;5048970;28;20276;-82
2022/04/14 10:31:26;;;;;;;;;;;;;;;-144.19;100.00;76195.41;5053187;28;19925;-85
2022/04/14 10:33:53;;;;;;;;;;;;;;;-144.19;100.00;76189.50;5041287;28;19932;-83
2022/04/14 10:36:21;;;;;;;;;;;;;;;-144.19;100.00;76232.78;5051913;28;19924;-84
2022/04/14 10:38:49;;;;;;;;;;;;;;;-144.19;100.00;76256.41;5046611;28;19931;-85
2022/04/14 10:41:22;;;;;;;;;;;;;;;-144.19;100.00;76390.25;5035626;28;19929;-87
2022/04/14 10:43:48;;;;;;;;;;;;;;;-144.19;100.00;76409.94;5033288;28;19925;-84
2022/04/14 10:46:16;;;;;;;;;;;;;;;-144.19;100.00;76409.94;5036071;28;20383;-84
2022/04/14 10:48:43;;;;;;;;;;;;;;;-144.19;100.00;76406.00;5053778;28;19925;-85
2022/04/14 10:51:20;;;;;;;;;;;;;;;-144.19;100.00;76335.16;5052513;28;19925;-83
2022/04/14 10:53:55;;;;;;;;;;;;;;;-144.19;100.00;76307.59;5067802;28;19975;-84
2022/04/14 10:56:34;;;;;;;;;;;;;;;-144.19;100.00;76280.03;5052663;28;19931;-83
2022/04/14 10:59:04;;;;;;;;;;;;;;;-144.19;100.00;76360.72;5052474;28;19925;-85
2022/04/14 11:01:50;;;;;;;;;;;;;;;-144.19;100.00;76364.66;5052443;28;19932;-84
2022/04/14 11:04:26;;;;;;;;;;;;;;;-144.19;100.00;76295.78;5053739;28;20425;-84
2022/04/14 11:07:01;;;;;;;;;;;;;;;-144.19;100.00;76209.19;5052899;28;19931;-84
2022/04/14 11:09:42;;;;;;;;;;;;;;;-144.19;100.00;76209.19;5053288;28;19925;-89
2022/04/14 11:12:10;;;;;;;;;;;;;;;-144.19;100.00;76185.56;5051291;28;19957;-85
2022/04/14 11:14:37;;;;;;;;;;;;;;;-144.19;100.00;76098.97;5051670;28;19935;-85
2022/04/14 11:17:03;;;;;;;;;;;;;;;-144.19;100.00;76171.78;5052913;28;19924;-85
2022/04/14 11:19:30;;;;;;;;;;;;;;;-144.19;100.00;76344.97;5052065;28;20337;-86
2022/04/14 11:22:05;;;;;;;;;;;;;;;-144.19;100.00;76358.75;5049954;28;19925;-83
2022/04/14 11:24:41;;;;;;;;;;;;;;;-144.19;100.00;76386.31;5050780;28;19936;-86
2022/04/14 11:27:15;;;;;;;;;;;;;;;-144.19;100.00;76394.19;5050713;28;19932;-83
2022/04/14 11:29:43;;;;;;;;;;;;;;;-144.19;100.00;76309.56;5054375;28;20400;-80
2022/04/14 11:32:10;;;;;;;;;;;;;;;-144.19;100.00;76197.38;5053921;28;19924;-83
2022/04/14 11:35:13;;;;;;;;;;;;;;;-144.19;100.00;76205.25;5045209;28;19929;-82
2022/04/14 11:37:44;;;;;;;;;;;;;;;-144.19;100.00;76207.22;5034173;28;20448;-84
2022/04/14 11:40:17;;;;;;;;;;;;;;;-144.19;100.00;76152.09;5034824;28;19941;-84
2022/04/14 11:42:47;;;;;;;;;;;;;;;-144.19;100.00;76075.34;5032765;28;19992;-84
2022/04/14 11:45:13;;;;;;;;;;;;;;;-144.19;100.00;76114.69;5034135;28;19972;-82
2022/04/14 11:47:40;;;;;;;;;;;;;;;-144.19;100.00;76073.38;5044712;28;19925;-81
2022/04/14 11:50:07;;;;;;;;;;;;;;;-144.19;100.00;76012.34;5054228;28;19924;-83
2022/04/14 11:52:33;;;;;;;;;;;;;;;-144.19;100.00;76224.91;5051323;28;20363;-83
2022/04/14 11:55:00;;;;;;;;;;;;;;;-144.19;100.00;76226.88;5055154;28;19925;-82
2022/04/14 11:57:31;;;;;;;;;;;;;;;-144.19;100.00;76215.09;5054243;28;19925;-84
2022/04/14 12:00:10;;;;;;;;;;;;;;;-144.19;100.00;76268.22;5055212;28;20370;-82
2022/04/14 12:02:37;;;;;;;;;;;;;;;-144.19;100.00;76299.72;5054113;28;19971;-83
2022/04/14 12:05:04;;;;;;;;;;;;;;;-144.19;100.00;76321.38;5053809;28;19928;-83
2022/04/14 12:07:34;;;;;;;;;;;;;;;-144.19;100.00;76323.34;5054245;28;20396;-84
2022/04/14 12:10:02;;;;;;;;;;;;;;;-144.19;100.00;76189.50;5054363;28;20306;-87
2022/04/14 12:12:32;;;;;;;;;;;;;;;-144.19;100.00;76138.31;5052723;28;20020;-86
2022/04/14 12:14:59;;;;;;;;;;;;;;;-144.19;100.00;76171.78;5055964;28;19925;-85
2022/04/14 12:17:26;;;;;;;;;;;;;;;-144.19;100.00;76287.91;5053300;28;19925;-86
2022/04/14 12:19:59;;;;;;;;;;;;;;;-144.19;100.00;76293.81;5052569;28;20268;-82
2022/04/14 12:22:27;;;;;;;;;;;;;;;-144.19;100.00;76313.50;5055015;28;20023;-82